EAS weather

San Sebastian Airport
Hondarribia, Basque Country, Spain

Public forecast

Using degrees Celsius for public forecast. Weather courtesy of forecast.io.

METAR (pilot weather report)

Retrieved 2019/07/18 15:30 UTC (0 seconds ago):

LESO 181530Z 01006KT 320V060 9999 FEW033 23/16 Q1019

TAF (pilot weather forecast)

Retrieved 2019/07/18 12:27 UTC (3 hours ago):

TAF LESO 181100Z 1812/1912 35008KT 9999 FEW035 TX24/1912Z TN15/1905Z